createdAt,value
2023-02-06T00:01:26.522Z,6.67
2023-02-06T00:03:53.248Z,8.37
2023-02-06T00:06:20.025Z,9.33
2023-02-06T00:08:46.664Z,7.17
2023-02-06T00:11:16.724Z,8.40
2023-02-06T00:13:47.749Z,6.87
2023-02-06T00:16:20.081Z,11.43
2023-02-06T00:18:47.504Z,5.03
2023-02-06T00:21:14.494Z,9.53
2023-02-06T00:23:43.118Z,7.70
2023-02-06T00:26:09.835Z,8.50
2023-02-06T00:28:36.472Z,10.13
2023-02-06T00:31:05.890Z,8.10
2023-02-06T00:33:32.647Z,5.47
2023-02-06T00:36:01.954Z,8.23
2023-02-06T00:38:30.655Z,6.87
2023-02-06T00:40:57.259Z,7.17
2023-02-06T00:43:24.014Z,8.33
2023-02-06T00:45:55.220Z,8.20
2023-02-06T00:48:22.486Z,8.07
2023-02-06T00:50:50.189Z,7.70
2023-02-06T00:53:17.169Z,7.77
2023-02-06T00:55:43.871Z,9.23
2023-02-06T00:58:13.863Z,8.20
2023-02-06T01:00:40.499Z,7.47
2023-02-06T01:03:07.283Z,7.67
2023-02-06T01:05:34.726Z,9.73
2023-02-06T01:08:04.642Z,8.40
2023-02-06T01:10:32.632Z,9.40
2023-02-06T01:13:04.351Z,9.07
2023-02-06T01:15:32.430Z,7.27
2023-02-06T01:18:07.252Z,10.40
2023-02-06T01:20:42.362Z,9.47
2023-02-06T01:23:11.020Z,7.73
2023-02-06T01:25:44.719Z,10.20
2023-02-06T01:28:19.301Z,11.90
2023-02-06T01:30:47.055Z,8.30
2023-02-06T01:33:24.438Z,11.17
2023-02-06T01:36:04.592Z,7.97
2023-02-06T01:38:31.405Z,11.70
2023-02-06T01:40:59.733Z,9.37
2023-02-06T01:43:29.596Z,10.83
2023-02-06T01:45:56.479Z,11.87
2023-02-06T01:48:31.968Z,12.87
2023-02-06T01:50:59.030Z,12.20
2023-02-06T01:53:26.923Z,12.20
2023-02-06T01:55:54.566Z,9.53
2023-02-06T01:58:29.054Z,12.00
2023-02-06T02:00:56.547Z,8.87
2023-02-06T02:03:23.334Z,13.90
2023-02-06T02:05:50.578Z,12.70
2023-02-06T02:08:27.165Z,9.53
2023-02-06T02:10:53.859Z,11.37
2023-02-06T02:13:20.507Z,10.50
2023-02-06T02:16:11.248Z,13.70
2023-02-06T02:19:10.534Z,15.27
2023-02-06T02:21:58.471Z,15.10
2023-02-06T02:24:50.432Z,10.83
2023-02-06T02:27:37.247Z,15.13
2023-02-06T02:30:35.096Z,15.93
2023-02-06T02:33:37.287Z,12.40
2023-02-06T02:36:03.838Z,14.03
2023-02-06T02:38:39.771Z,13.90
2023-02-06T02:41:12.290Z,16.93
2023-02-06T02:43:50.521Z,13.90
2023-02-06T02:46:28.019Z,13.60
2023-02-06T02:48:57.118Z,12.47
2023-02-06T02:51:24.642Z,14.37
2023-02-06T02:53:51.399Z,14.70
2023-02-06T02:56:22.668Z,13.20
2023-02-06T02:58:54.652Z,11.60
2023-02-06T03:01:35.838Z,14.70
2023-02-06T03:04:16.449Z,14.93
2023-02-06T03:06:49.097Z,14.67
2023-02-06T03:09:25.928Z,13.73
2023-02-06T03:12:01.533Z,13.50
2023-02-06T03:14:32.976Z,13.60
2023-02-06T03:17:04.044Z,14.17
2023-02-06T03:19:36.940Z,12.47
2023-02-06T03:22:04.266Z,13.50
2023-02-06T03:24:34.810Z,19.70
2023-02-06T03:27:04.276Z,13.80
2023-02-06T03:29:33.575Z,14.53
2023-02-06T03:32:44.857Z,12.53
2023-02-06T03:35:18.569Z,15.60
2023-02-06T03:37:45.625Z,13.85
2023-02-06T03:40:12.389Z,16.40
2023-02-06T03:42:41.720Z,15.77
2023-02-06T03:45:14.020Z,11.60
2023-02-06T03:47:41.469Z,14.37
2023-02-06T03:50:09.522Z,14.57
2023-02-06T03:52:39.178Z,14.83
2023-02-06T03:55:13.137Z,14.10
2023-02-06T03:57:42.163Z,18.42
2023-02-06T04:00:09.522Z,15.87
2023-02-06T04:02:37.410Z,11.20
2023-02-06T04:05:04.362Z,12.60
2023-02-06T04:07:31.491Z,14.27
2023-02-06T04:09:58.167Z,12.17
2023-02-06T04:12:25.184Z,12.87
2023-02-06T04:14:52.301Z,14.43
2023-02-06T04:17:38.471Z,14.37
2023-02-06T04:20:06.103Z,14.40
2023-02-06T04:22:32.929Z,14.27
2023-02-06T04:24:59.539Z,11.60
2023-02-06T04:27:26.213Z,11.00
2023-02-06T04:29:52.835Z,13.63
2023-02-06T04:32:19.520Z,15.97
2023-02-06T04:34:46.123Z,16.53
2023-02-06T04:37:12.788Z,15.03
2023-02-06T04:39:39.465Z,16.40
2023-02-06T04:42:07.007Z,12.57
2023-02-06T04:44:34.030Z,15.87
2023-02-06T04:47:01.219Z,16.20
2023-02-06T04:49:27.862Z,15.63
2023-02-06T04:51:54.502Z,14.40
2023-02-06T04:54:21.170Z,16.57
2023-02-06T04:56:49.064Z,14.80
2023-02-06T04:59:15.897Z,16.47
2023-02-06T05:01:42.640Z,15.77
2023-02-06T05:04:09.435Z,11.33
2023-02-06T05:06:37.570Z,13.87
2023-02-06T05:09:05.221Z,13.10
2023-02-06T05:11:34.124Z,14.93
2023-02-06T05:14:00.862Z,15.17
2023-02-06T05:16:27.529Z,14.73
2023-02-06T05:18:55.706Z,15.13
2023-02-06T05:21:23.637Z,19.70
2023-02-06T05:23:50.339Z,13.20
2023-02-06T05:26:17.169Z,16.20
2023-02-06T05:28:46.680Z,18.20
2023-02-06T05:31:19.622Z,14.83
2023-02-06T05:33:48.990Z,14.83
2023-02-06T05:36:17.133Z,14.20
2023-02-06T05:38:43.790Z,15.23
2023-02-06T05:41:10.509Z,17.20
2023-02-06T05:43:38.146Z,17.50
2023-02-06T05:46:04.874Z,14.53
2023-02-06T05:48:32.833Z,12.47
2023-02-06T05:50:59.473Z,16.63
2023-02-06T05:53:26.144Z,16.90
2023-02-06T05:55:52.740Z,15.93
2023-02-06T05:58:19.408Z,16.40
2023-02-06T06:00:45.994Z,15.10
2023-02-06T06:03:12.765Z,14.07
2023-02-06T06:05:39.586Z,13.00
2023-02-06T06:08:06.260Z,13.23
2023-02-06T06:10:32.901Z,16.07
2023-02-06T06:12:59.857Z,15.60
2023-02-06T06:15:26.509Z,16.20
2023-02-06T06:17:53.134Z,14.73
2023-02-06T06:20:19.763Z,15.47
2023-02-06T06:22:46.390Z,14.07
2023-02-06T06:25:12.964Z,16.00
2023-02-06T06:27:39.629Z,13.97
2023-02-06T06:30:06.687Z,16.77
2023-02-06T06:32:33.316Z,16.17
2023-02-06T06:34:59.895Z,14.10
2023-02-06T06:37:26.483Z,15.60
2023-02-06T06:39:53.089Z,16.60
2023-02-06T06:42:19.777Z,15.30
2023-02-06T06:44:46.392Z,14.33
2023-02-06T06:47:13.057Z,14.73
2023-02-06T06:49:40.402Z,14.83
2023-02-06T06:52:13.395Z,13.33
2023-02-06T06:54:46.733Z,15.97
2023-02-06T06:57:13.578Z,15.97
2023-02-06T06:59:40.350Z,16.17
2023-02-06T07:02:07.250Z,14.87
2023-02-06T07:04:35.328Z,18.67
2023-02-06T07:07:02.174Z,16.40
2023-02-06T07:09:28.988Z,18.77
2023-02-06T07:11:55.797Z,17.73
2023-02-06T07:14:22.649Z,20.00
2023-02-06T07:16:49.333Z,21.43
2023-02-06T07:19:16.298Z,16.80
2023-02-06T07:21:43.077Z,16.20
2023-02-06T07:24:09.827Z,22.17
2023-02-06T07:26:36.542Z,16.37
2023-02-06T07:29:03.764Z,16.70
2023-02-06T07:31:30.421Z,19.27
2023-02-06T07:33:57.116Z,19.30
2023-02-06T07:36:23.768Z,15.37
2023-02-06T07:38:50.383Z,16.43
2023-02-06T07:41:17.969Z,17.93
2023-02-06T07:43:44.726Z,19.13
2023-02-06T07:46:11.514Z,23.80
2023-02-06T07:48:40.699Z,20.00
2023-02-06T07:51:08.583Z,21.73
2023-02-06T07:53:36.276Z,19.70
2023-02-06T07:56:09.486Z,26.40
2023-02-06T07:58:36.143Z,21.00
2023-02-06T08:01:05.120Z,20.00
2023-02-06T08:03:32.056Z,25.03
2023-02-06T08:05:58.796Z,20.70
2023-02-06T08:08:25.738Z,19.40
2023-02-06T08:10:52.546Z,23.17
2023-02-06T08:13:19.198Z,17.97
2023-02-06T08:15:45.795Z,22.13
2023-02-06T08:18:12.394Z,22.33
2023-02-06T08:20:38.968Z,27.20
2023-02-06T08:23:05.601Z,25.10
2023-02-06T08:25:32.227Z,22.00
2023-02-06T08:27:58.923Z,27.63
2023-02-06T08:30:25.677Z,22.00
2023-02-06T08:32:52.363Z,26.37
2023-02-06T08:35:18.984Z,24.77
2023-02-06T08:37:45.584Z,23.90
2023-02-06T08:40:12.471Z,21.87
2023-02-06T08:42:39.128Z,22.03
2023-02-06T08:45:06.172Z,23.20
2023-02-06T08:47:32.906Z,25.47
2023-02-06T08:50:01.577Z,25.43
2023-02-06T08:52:29.780Z,25.77
2023-02-06T08:54:56.445Z,21.00
2023-02-06T08:57:23.114Z,25.30
2023-02-06T08:59:51.056Z,28.70
2023-02-06T09:02:17.779Z,22.50
2023-02-06T09:04:44.421Z,29.83
2023-02-06T09:07:11.051Z,29.73
2023-02-06T09:09:37.764Z,26.50
2023-02-06T09:12:05.199Z,27.70
2023-02-06T09:14:32.049Z,32.00
2023-02-06T09:16:58.746Z,29.87
2023-02-06T09:19:25.900Z,27.77
2023-02-06T09:21:52.585Z,26.70
2023-02-06T09:24:19.310Z,25.40
2023-02-06T09:26:58.962Z,32.33
2023-02-06T09:29:31.659Z,30.67
2023-02-06T09:31:59.039Z,28.07
2023-02-06T09:34:27.234Z,30.17
2023-02-06T09:36:55.076Z,26.33
2023-02-06T09:39:21.754Z,29.80
2023-02-06T09:42:13.193Z,26.67
2023-02-06T09:44:46.283Z,22.37
2023-02-06T09:47:47.476Z,28.57
2023-02-06T09:50:28.279Z,30.13
2023-02-06T09:53:21.110Z,22.97
2023-02-06T09:56:17.015Z,23.87
2023-02-06T09:58:51.447Z,24.90
2023-02-06T10:01:29.952Z,28.25
2023-02-06T10:04:18.965Z,23.23
2023-02-06T10:07:17.860Z,23.67
2023-02-06T10:09:52.624Z,22.97
2023-02-06T10:12:34.109Z,22.07
2023-02-06T10:15:14.080Z,21.40
2023-02-06T10:17:54.185Z,17.93
2023-02-06T10:20:35.686Z,22.23
2023-02-06T10:23:23.637Z,19.60
2023-02-06T10:26:05.547Z,15.83
2023-02-06T10:28:35.359Z,16.77
2023-02-06T10:31:26.736Z,22.20
2023-02-06T10:34:15.411Z,18.33
2023-02-06T10:36:54.524Z,20.50
2023-02-06T10:39:49.399Z,21.67
2023-02-06T10:42:43.925Z,21.52
2023-02-06T10:45:20.090Z,19.23
2023-02-06T10:48:13.212Z,21.67
2023-02-06T10:50:46.272Z,22.27
2023-02-06T10:53:26.814Z,19.67
2023-02-06T10:55:57.433Z,21.77
2023-02-06T10:58:29.290Z,21.83
2023-02-06T11:00:57.142Z,22.53
2023-02-06T11:03:27.045Z,18.57
2023-02-06T11:05:53.732Z,27.47
2023-02-06T11:08:25.764Z,24.93
2023-02-06T11:10:52.942Z,20.60
2023-02-06T11:13:33.383Z,24.73
2023-02-06T11:16:08.315Z,20.80
2023-02-06T11:18:37.533Z,22.90
2023-02-06T11:21:08.015Z,20.97
2023-02-06T11:23:35.114Z,19.00
2023-02-06T11:26:08.941Z,19.80
2023-02-06T11:28:38.454Z,42.97
2023-02-06T11:31:07.407Z,28.53
2023-02-06T11:33:50.930Z,21.97
2023-02-06T11:36:30.374Z,25.30
2023-02-06T11:39:20.248Z,21.40
2023-02-06T11:42:11.307Z,21.10
2023-02-06T11:44:42.563Z,24.77
2023-02-06T11:47:38.014Z,24.63
2023-02-06T11:50:14.063Z,24.90
2023-02-06T11:52:47.056Z,22.90
2023-02-06T11:55:29.578Z,20.83
2023-02-06T11:58:11.501Z,22.80
2023-02-06T12:01:00.121Z,25.63
2023-02-06T12:03:33.032Z,37.73
2023-02-06T12:06:08.918Z,24.67
2023-02-06T12:08:46.291Z,29.83
2023-02-06T12:11:26.409Z,27.47
2023-02-06T12:14:01.081Z,29.30
2023-02-06T12:16:27.880Z,27.80
2023-02-06T12:18:57.329Z,25.50
2023-02-06T12:21:41.653Z,27.60
2023-02-06T12:24:21.922Z,24.25
2023-02-06T12:26:49.277Z,26.30
2023-02-06T12:29:30.838Z,26.47
2023-02-06T12:32:15.113Z,24.10
2023-02-06T12:35:01.067Z,24.17
2023-02-06T12:37:37.746Z,27.70
2023-02-06T12:40:04.526Z,21.73
2023-02-06T12:42:36.323Z,25.57
2023-02-06T12:45:44.913Z,25.77
2023-02-06T12:48:40.264Z,24.17
2023-02-06T12:51:27.626Z,28.27
2023-02-06T12:53:59.400Z,24.67
2023-02-06T12:56:35.033Z,24.23
2023-02-06T12:59:46.206Z,22.20
2023-02-06T13:02:26.150Z,23.43
2023-02-06T13:04:53.330Z,30.52
2023-02-06T13:07:22.231Z,25.43
2023-02-06T13:09:59.326Z,24.67
2023-02-06T13:12:28.849Z,24.70
2023-02-06T13:15:06.874Z,23.80
2023-02-06T13:17:39.069Z,27.93
2023-02-06T13:20:14.140Z,20.00
2023-02-06T13:23:11.998Z,23.90
2023-02-06T13:25:38.723Z,21.97
2023-02-06T13:28:21.599Z,24.60
2023-02-06T13:31:01.913Z,22.77
2023-02-06T13:33:40.765Z,21.90
2023-02-06T13:36:10.112Z,25.17
2023-02-06T13:38:42.340Z,21.67
2023-02-06T13:41:15.189Z,25.87
2023-02-06T13:43:54.390Z,23.60
2023-02-06T13:46:24.323Z,27.67
2023-02-06T13:48:53.811Z,30.97
2023-02-06T13:51:25.875Z,20.50
2023-02-06T13:54:17.537Z,26.67
2023-02-06T13:56:59.728Z,22.90
2023-02-06T13:59:33.992Z,22.27
2023-02-06T14:04:34.912Z,23.05
2023-02-06T14:07:23.293Z,28.40
2023-02-06T14:10:18.212Z,22.50
2023-02-06T14:15:43.870Z,22.33
2023-02-06T14:18:26.974Z,21.13
2023-02-06T14:21:18.542Z,24.67
2023-02-06T14:24:08.691Z,21.20
2023-02-06T14:26:54.319Z,29.67
2023-02-06T14:29:49.835Z,22.83
2023-02-06T14:32:33.157Z,23.00
2023-02-06T14:35:06.290Z,21.20
2023-02-06T14:37:54.054Z,20.53
2023-02-06T14:40:26.305Z,20.90
2023-02-06T14:42:56.763Z,21.07
2023-02-06T14:45:33.814Z,22.30
2023-02-06T14:48:07.307Z,21.37
2023-02-06T14:50:40.453Z,19.50
2023-02-06T14:53:10.333Z,20.80
2023-02-06T14:55:39.528Z,18.80
2023-02-06T14:58:28.229Z,17.23
2023-02-06T15:00:56.309Z,16.83
2023-02-06T15:03:26.941Z,15.47
2023-02-06T15:06:02.282Z,22.60
2023-02-06T15:08:29.084Z,25.17
2023-02-06T15:11:00.913Z,28.57
2023-02-06T15:13:34.833Z,19.40
2023-02-06T15:16:09.150Z,20.10
2023-02-06T15:21:09.023Z,17.47
2023-02-06T15:23:58.438Z,16.97
2023-02-06T15:26:36.049Z,21.00
2023-02-06T15:29:05.230Z,16.80
2023-02-06T15:31:32.351Z,22.07
2023-02-06T15:34:00.311Z,28.97
2023-02-06T15:36:36.031Z,22.50
2023-02-06T15:39:06.180Z,25.60
2023-02-06T15:41:34.023Z,22.83
2023-02-06T15:44:03.434Z,18.47
2023-02-06T15:46:30.979Z,19.40
2023-02-06T15:48:58.414Z,24.33
2023-02-06T15:51:27.673Z,17.37
2023-02-06T15:54:20.067Z,19.70
2023-02-06T15:56:58.805Z,18.87
2023-02-06T15:59:26.842Z,20.07
2023-02-06T16:01:56.453Z,20.97
2023-02-06T16:04:31.465Z,18.33
2023-02-06T16:07:15.913Z,23.07
2023-02-06T16:09:48.730Z,22.15
2023-02-06T16:12:17.096Z,21.35
2023-02-06T16:15:01.173Z,22.73
2023-02-06T16:17:37.046Z,17.77
2023-02-06T16:20:28.595Z,18.07
2023-02-06T16:23:25.551Z,20.30
2023-02-06T16:26:21.806Z,16.30
2023-02-06T16:29:04.473Z,21.20
2023-02-06T16:31:35.017Z,19.87
2023-02-06T16:34:04.738Z,16.60
2023-02-06T16:36:32.346Z,16.03
2023-02-06T16:39:04.150Z,17.63
2023-02-06T16:41:34.675Z,22.07
2023-02-06T16:44:02.036Z,18.53
2023-02-06T16:46:29.123Z,18.33
2023-02-06T16:48:56.495Z,16.47
2023-02-06T16:51:25.789Z,19.37
2023-02-06T16:53:52.788Z,23.93
2023-02-06T16:56:22.704Z,16.53
2023-02-06T16:58:49.637Z,17.00
2023-02-06T17:01:25.718Z,17.57
2023-02-06T17:03:53.068Z,18.27
2023-02-06T17:06:25.812Z,17.47
2023-02-06T17:08:54.634Z,16.60
2023-02-06T17:11:21.283Z,19.73
2023-02-06T17:13:50.655Z,26.07
2023-02-06T17:16:20.248Z,17.70
2023-02-06T17:18:47.192Z,21.93
2023-02-06T17:21:15.186Z,20.57
2023-02-06T17:23:41.994Z,22.03
2023-02-06T17:26:13.393Z,17.73
2023-02-06T17:28:40.377Z,17.73
2023-02-06T17:31:07.447Z,18.57
2023-02-06T17:33:34.361Z,20.67
2023-02-06T17:36:01.639Z,20.40
2023-02-06T17:38:30.680Z,21.60
2023-02-06T17:40:57.393Z,21.40
2023-02-06T17:43:25.088Z,21.83
2023-02-06T17:45:52.023Z,22.03
2023-02-06T17:48:18.933Z,19.77
2023-02-06T17:50:45.553Z,19.13
2023-02-06T17:53:14.057Z,19.87
2023-02-06T17:55:40.983Z,24.87
2023-02-06T17:58:08.874Z,24.80
2023-02-06T18:00:35.772Z,18.37
2023-02-06T18:03:02.730Z,18.80
2023-02-06T18:05:29.346Z,25.00
2023-02-06T18:07:56.134Z,23.30
2023-02-06T18:10:24.670Z,23.63
2023-02-06T18:12:51.421Z,24.20
2023-02-06T18:15:18.110Z,23.13
2023-02-06T18:17:44.840Z,17.97
2023-02-06T18:20:12.208Z,25.47
2023-02-06T18:22:41.159Z,23.10
2023-02-06T18:25:12.823Z,22.13
2023-02-06T18:27:40.857Z,18.03
2023-02-06T18:30:09.043Z,23.07
2023-02-06T18:32:37.549Z,23.60
2023-02-06T18:35:04.726Z,20.87
2023-02-06T18:37:31.403Z,20.43
2023-02-06T18:39:58.063Z,20.40
2023-02-06T18:42:43.415Z,18.57
2023-02-06T18:45:11.159Z,18.37
2023-02-06T18:47:39.105Z,23.70
2023-02-06T18:50:06.085Z,19.30
2023-02-06T18:52:32.766Z,17.00
2023-02-06T18:54:59.370Z,28.17
2023-02-06T18:57:26.050Z,38.90
2023-02-06T18:59:52.664Z,29.63
2023-02-06T19:02:19.552Z,46.03
2023-02-06T19:04:46.306Z,35.53
2023-02-06T19:07:16.562Z,20.27
2023-02-06T19:09:43.185Z,22.30
2023-02-06T19:12:10.095Z,20.57
2023-02-06T19:14:36.742Z,19.43
2023-02-06T19:17:03.382Z,21.30
2023-02-06T19:19:30.054Z,17.40
2023-02-06T19:21:57.771Z,19.23
2023-02-06T19:24:26.198Z,19.43
2023-02-06T19:26:52.820Z,19.33
2023-02-06T19:29:33.575Z,22.53
2023-02-06T19:32:06.041Z,19.33
2023-02-06T19:34:36.205Z,17.93
2023-02-06T19:37:04.518Z,21.70
2023-02-06T19:39:34.005Z,19.40
2023-02-06T19:42:02.035Z,18.70
2023-02-06T19:44:30.441Z,24.03
2023-02-06T19:46:57.155Z,22.77
2023-02-06T19:49:24.592Z,19.03
2023-02-06T19:51:52.777Z,18.37
2023-02-06T19:54:19.585Z,19.23
2023-02-06T19:56:47.754Z,18.60
2023-02-06T19:59:20.027Z,24.10
2023-02-06T20:01:57.863Z,18.87
2023-02-06T20:04:27.681Z,21.17
2023-02-06T20:06:55.871Z,18.70
2023-02-06T20:09:23.232Z,23.93
2023-02-06T20:11:50.504Z,24.83
2023-02-06T20:14:18.038Z,18.27
2023-02-06T20:16:45.432Z,26.93
2023-02-06T20:19:18.699Z,17.70
2023-02-06T20:21:48.993Z,22.67
2023-02-06T20:24:18.638Z,17.93
2023-02-06T20:26:45.321Z,17.97
2023-02-06T20:29:19.517Z,17.70
2023-02-06T20:31:46.285Z,14.88
2023-02-06T20:34:13.217Z,14.23
2023-02-06T20:36:41.835Z,16.43
2023-02-06T20:39:11.229Z,19.30
2023-02-06T20:41:38.403Z,15.10
2023-02-06T20:44:05.566Z,15.23
2023-02-06T20:46:33.772Z,18.83
2023-02-06T20:49:03.429Z,16.57
2023-02-06T20:51:30.991Z,22.87
2023-02-06T20:53:57.988Z,23.47
2023-02-06T20:56:24.861Z,16.63
2023-02-06T20:58:52.138Z,19.07
2023-02-06T21:01:25.167Z,22.90
2023-02-06T21:03:54.858Z,15.37
2023-02-06T21:06:21.920Z,20.43
2023-02-06T21:08:50.322Z,15.50
2023-02-06T21:11:18.474Z,18.80
2023-02-06T21:13:45.144Z,20.63
2023-02-06T21:16:13.580Z,18.80
2023-02-06T21:18:42.494Z,20.43
2023-02-06T21:21:12.833Z,20.00
2023-02-06T21:23:40.820Z,18.57
2023-02-06T21:26:09.665Z,22.07
2023-02-06T21:28:52.021Z,18.87
2023-02-06T21:31:26.365Z,20.20
2023-02-06T21:33:53.402Z,14.97
2023-02-06T21:36:21.195Z,21.67
2023-02-06T21:38:50.698Z,17.30
2023-02-06T21:41:18.850Z,13.20
2023-02-06T21:43:45.858Z,16.93
2023-02-06T21:46:13.299Z,18.07
2023-02-06T21:48:40.759Z,13.60
2023-02-06T21:51:16.674Z,16.80
2023-02-06T21:53:44.694Z,17.40
2023-02-06T21:56:14.567Z,13.70
2023-02-06T21:58:41.213Z,18.40
2023-02-06T22:01:09.138Z,15.93
2023-02-06T22:03:36.160Z,16.13
2023-02-06T22:06:08.749Z,20.70
2023-02-06T22:08:36.506Z,17.17
2023-02-06T22:11:17.366Z,16.50
2023-02-06T22:13:45.033Z,15.50
2023-02-06T22:16:14.179Z,18.33
2023-02-06T22:18:41.368Z,15.67
2023-02-06T22:21:10.849Z,17.97
2023-02-06T22:23:38.439Z,17.87
2023-02-06T22:26:07.471Z,18.93
2023-02-06T22:28:34.340Z,17.00
2023-02-06T22:31:09.514Z,16.23
2023-02-06T22:33:39.841Z,19.07
2023-02-06T22:36:09.276Z,21.37
2023-02-06T22:38:36.359Z,15.83
2023-02-06T22:41:05.985Z,20.10
2023-02-06T22:43:34.720Z,17.97
2023-02-06T22:46:01.608Z,16.43
2023-02-06T22:48:30.641Z,20.63
2023-02-06T22:51:05.771Z,15.80
2023-02-06T22:53:32.460Z,12.87
2023-02-06T22:56:19.372Z,14.03
2023-02-06T22:58:46.366Z,20.60
2023-02-06T23:01:14.344Z,15.73
2023-02-06T23:03:41.061Z,13.73
2023-02-06T23:06:15.718Z,15.97
2023-02-06T23:08:43.111Z,14.83
2023-02-06T23:11:10.183Z,15.33
2023-02-06T23:13:37.308Z,15.33
2023-02-06T23:16:04.498Z,13.30
2023-02-06T23:18:32.411Z,15.07
2023-02-06T23:21:11.256Z,15.43
2023-02-06T23:23:38.861Z,16.50
2023-02-06T23:26:10.446Z,14.20
2023-02-06T23:28:37.605Z,15.27
2023-02-06T23:31:04.491Z,14.60
2023-02-06T23:33:33.780Z,16.47
2023-02-06T23:36:14.251Z,13.53
2023-02-06T23:38:41.434Z,14.50
2023-02-06T23:41:11.092Z,17.07
2023-02-06T23:43:40.580Z,14.73
2023-02-06T23:46:09.870Z,14.90
2023-02-06T23:48:40.609Z,13.60
2023-02-06T23:51:07.577Z,18.93
2023-02-06T23:53:35.839Z,19.50
2023-02-06T23:56:08.848Z,17.13
2023-02-06T23:58:35.649Z,14.40
